Nord Tokyo — 9V8171 — position and weather

sailwx.info

Track history (hours):
 
Tides and Currents Weather Stations Pressure Air Temp Water Temp Dewpoint Dewpoint Depression Visibility Wind Speed Wind Dir Waves Ship Positions

Nord Tokyo

Last reported at 2018-Feb-01 18:11 UTC. Time now 2018-Feb-20 07:33 UTC.
Position S 07°12' E 112°43'.
Warning: this ship's position is 18 days out of date.

Length 169 m; draft 9.8 m.

Type: Cargo ship. MMSI: 564896000.

Date/timePositionNaut miles runAvg speedWind from/ knotsBaromVisibWave heightAir tempDewpointWater temp
2018-Feb-01 18:11S 07°12' E 112°43'0 0.0
2018-Feb-01 17:56S 07°12' E 112°43'0 0.0
2018-Feb-01 13:26S 07°12' E 112°43'0 0.0
2018-Feb-01 12:38S 07°12' E 112°43'0 0.0
2018-Feb-01 12:29S 07°12' E 112°43'0 0.0
2018-Feb-01 11:50S 07°12' E 112°43'0 0.0
2018-Feb-01 10:20S 07°12' E 112°43'0 0.0
2018-Feb-01 09:17S 07°12' E 112°43'0 0.0
2018-Feb-01 07:26S 07°12' E 112°43'0 0.0
2018-Jan-31 22:26S 07°12' E 112°43'0 0.0
2018-Jan-31 20:50S 07°12' E 112°43'0 0.0
2018-Jan-31 20:02S 07°12' E 112°43'0 0.0
2018-Jan-31 19:59S 07°12' E 112°43'0 0.0
2018-Jan-31 19:29S 07°12' E 112°43'0 0.0
2018-Jan-31 18:59S 07°12' E 112°43'0 0.0
2018-Jan-31 16:20S 07°12' E 112°43'0 0.0
2018-Jan-31 02:17S 07°12' E 112°43'0 0.0
2018-Jan-31 01:59S 07°12' E 112°43'0 0.0
2018-Jan-31 01:14S 07°12' E 112°43'0 0.0
2018-Jan-31 00:50S 07°12' E 112°43'0 0.0
2018-Jan-30 22:51S 07°12' E 112°43'0 0.8
2018-Jan-30 22:28S 07°12' E 112°44'9 8.9
2018-Jan-30 21:27S 07°03' E 112°40'810.3
2018-Jan-30 20:43S 06°57' E 112°43'3 9.4
2018-Jan-30 20:21S 06°53' E 112°44'3 6.7
2018-Jan-30 19:53S 06°51' E 112°46'2 3.6
2018-Jan-30 19:23S 06°50' E 112°47'0 0.0
2018-Jan-30 09:09S 06°50' E 112°48'0 0.4
2018-Jan-30 08:59S 06°50' E 112°47'  
Track history (hours):
 
Tides and Currents Weather Stations Pressure Air Temp Water Temp Dewpoint Dewpoint Depression Visibility Wind Speed Wind Dir Waves Ship Positions

Nord Tokyo

Last reported at 2018-Feb-01 18:11 UTC. Time now 2018-Feb-20 07:33 UTC.
Position S 07°12' E 112°43'.
Warning: this ship's position is 18 days out of date.

Length 169 m; draft 9.8 m.

Type: Cargo ship. MMSI: 564896000.

Date/timePositionNaut miles runAvg speedWind from/ knotsBaromVisibWave heightAir tempDewpointWater temp
2018-Feb-01 18:11S 07°12' E 112°43'0 0.0
2018-Feb-01 17:56S 07°12' E 112°43'0 0.0
2018-Feb-01 13:26S 07°12' E 112°43'0 0.0
2018-Feb-01 12:38S 07°12' E 112°43'0 0.0
2018-Feb-01 12:29S 07°12' E 112°43'0 0.0
2018-Feb-01 11:50S 07°12' E 112°43'0 0.0
2018-Feb-01 10:20S 07°12' E 112°43'0 0.0
2018-Feb-01 09:17S 07°12' E 112°43'0 0.0
2018-Feb-01 07:26S 07°12' E 112°43'0 0.0
2018-Jan-31 22:26S 07°12' E 112°43'0 0.0
2018-Jan-31 20:50S 07°12' E 112°43'0 0.0
2018-Jan-31 20:02S 07°12' E 112°43'0 0.0
2018-Jan-31 19:59S 07°12' E 112°43'0 0.0
2018-Jan-31 19:29S 07°12' E 112°43'0 0.0
2018-Jan-31 18:59S 07°12' E 112°43'0 0.0
2018-Jan-31 16:20S 07°12' E 112°43'0 0.0
2018-Jan-31 02:17S 07°12' E 112°43'0 0.0
2018-Jan-31 01:59S 07°12' E 112°43'0 0.0
2018-Jan-31 01:14S 07°12' E 112°43'0 0.0
2018-Jan-31 00:50S 07°12' E 112°43'0 0.0
2018-Jan-30 22:51S 07°12' E 112°43'0 0.8
2018-Jan-30 22:28S 07°12' E 112°44'9 8.9
2018-Jan-30 21:27S 07°03' E 112°40'810.3
2018-Jan-30 20:43S 06°57' E 112°43'3 9.4
2018-Jan-30 20:21S 06°53' E 112°44'3 6.7
2018-Jan-30 19:53S 06°51' E 112°46'2 3.6
2018-Jan-30 19:23S 06°50' E 112°47'0 0.0
2018-Jan-30 09:09S 06°50' E 112°48'0 0.4
2018-Jan-30 08:59S 06°50' E 112°47'  

Dump ship's entire track history